Aeroporto :
LOGIN :

Iscrizione | Disclaimer

   EN    FR    IT 

 










Sommario :    VFR   VFR Marginale   IFR   IFR Intensivo   IFR Molto Intensivo
Visibilità : 
Base nubi : 
>= 8 km
>= 3000ft
5 / 8 km
1000 / 3000 ft
1500m / 5 km
500 / 1000 ft
800 / 1500m
200 / 500 ft
< 800m
< 200 ft
Simboli :   Temporali  Nebbia  Neve Forte  Precipitazioni Forti  Vento > 20 kt
SIGMETs :   Varie  Temporali  Ghiacco  Turbolenza  Onda orograficha  Ceneri Vulcaniche






- Altitudine del aeroporto : 257 ft
- Codice IATA : MAN


EGCC - Manchester

ULTIMO METAR :
  • 210150Z AUTO 15004KT 9999 OVC030 M01/M02 Q1040 TEMPO 4000 BR

METARs OBSOLETI :
  • 210120Z AUTO VRB02KT 9999 BKN030 M03/M04 Q1040 TEMPO 4000 BR
  • 210050Z AUTO 15003KT 9999 NCD M02/M03 Q1040 TEMPO 4000 BR
  • 210020Z AUTO 18003KT 9999 NCD M02/M03 Q1040 TEMPO 4000 BR
  • 202350Z AUTO 16003KT 9999 NCD M03/M03 Q1040 TEMPO 4000 BR

TAF TAF EGCC
Valido dal 21 a 00 ore il 22 a 06 ore UTC


202256Z 2100/2206 31005KT 9999 FEW040
TEMPO 2100/2109 4000 BR
PROB30 2102/2108 0300 FZFG VV///
TEMPO 2109/2114 BKN012
PROB30
TEMPO 2120/2206 BKN012
ATIS : +44 161 499 2324



MetMap, La meteo Aeronautica in un colpo d'occhio ! - Copyright ORBIFLY Dicembre 2007 - Disclaimer

ORBIFLY MET'MAP TEAM :

Programmazione e sviluppo : Alexandra Zaïnal
Concezione : Baudouin d'Aumeries
Aiuto per la programmazione : Marc-Olivier Méhu
Supporto tecnico e logistico : Manuel Goepfert
Aiuto per la traduzione : Arnaldo La Scala

Contatto : metmap@orbifly.com




FONTI E CREDITI :

   NOAA